createdAt,value
2018-01-22T00:00:14.232Z,1.10
2018-01-22T00:02:42.597Z,1.20
2018-01-22T00:05:10.952Z,1.30
2018-01-22T00:07:39.363Z,1.20
2018-01-22T00:10:08.470Z,1.20
2018-01-22T00:12:37.569Z,1.30
2018-01-22T00:15:07.639Z,1.30
2018-01-22T00:17:35.980Z,1.20
2018-01-22T00:20:04.796Z,1.30
2018-01-22T00:22:34.080Z,1.10
2018-01-22T00:25:02.428Z,1.10
2018-01-22T00:27:30.807Z,1.00
2018-01-22T00:30:01.672Z,1.10
2018-01-22T00:32:30.043Z,1.00
2018-01-22T00:34:58.426Z,1.00
2018-01-22T00:37:26.809Z,1.00
2018-01-22T00:39:55.171Z,1.10
2018-01-22T00:42:23.550Z,1.10
2018-01-22T00:44:52.396Z,1.20
2018-01-22T00:47:20.751Z,1.10
2018-01-22T00:49:49.111Z,1.10
2018-01-22T00:52:17.788Z,1.10
2018-01-22T00:54:46.136Z,1.00
2018-01-22T00:57:15.273Z,1.00
2018-01-22T00:59:43.770Z,0.90
2018-01-22T01:02:12.117Z,0.90
2018-01-22T01:04:40.477Z,0.90
2018-01-22T01:07:09.058Z,0.80
2018-01-22T01:09:39.034Z,0.80
2018-01-22T01:12:08.250Z,0.80
2018-01-22T01:14:36.740Z,0.80
2018-01-22T01:17:05.865Z,0.80
2018-01-22T01:19:34.227Z,0.80
2018-01-22T01:22:03.611Z,0.70
2018-01-22T01:24:32.728Z,0.70
2018-01-22T01:27:01.840Z,0.70
2018-01-22T01:29:30.232Z,0.70
2018-01-22T01:31:58.578Z,0.70
2018-01-22T01:34:27.888Z,0.70
2018-01-22T01:36:56.393Z,0.70
2018-01-22T01:39:24.793Z,0.70
2018-01-22T01:41:53.152Z,0.80
2018-01-22T01:44:21.746Z,0.70
2018-01-22T01:46:50.108Z,0.70
2018-01-22T01:49:18.447Z,0.80
2018-01-22T01:51:47.646Z,0.80
2018-01-22T01:54:16.759Z,0.70
2018-01-22T01:56:45.090Z,0.70
2018-01-22T01:59:13.629Z,0.80
2018-01-22T02:01:41.977Z,0.80
2018-01-22T02:04:11.103Z,0.80
2018-01-22T02:06:39.483Z,0.80
2018-01-22T02:09:07.870Z,0.80
2018-01-22T02:11:36.234Z,0.80
2018-01-22T02:14:04.774Z,0.80
2018-01-22T02:16:33.120Z,0.80
2018-01-22T02:19:01.470Z,0.80
2018-01-22T02:21:29.888Z,0.80
2018-01-22T02:23:58.697Z,0.80
2018-01-22T02:26:27.049Z,0.80
2018-01-22T02:28:56.553Z,0.80
2018-01-22T02:31:24.916Z,0.70
2018-01-22T02:33:53.272Z,0.80
2018-01-22T02:36:22.630Z,0.70
2018-01-22T02:38:50.990Z,0.70
2018-01-22T02:41:19.328Z,0.70
2018-01-22T02:43:48.554Z,0.70
2018-01-22T02:46:17.461Z,0.70
2018-01-22T02:48:46.023Z,0.80
2018-01-22T02:51:14.514Z,0.80
2018-01-22T02:53:42.883Z,0.70
2018-01-22T02:56:11.227Z,0.80
2018-01-22T02:58:40.584Z,0.80
2018-01-22T03:01:08.940Z,0.70
2018-01-22T03:03:37.284Z,0.80
2018-01-22T03:06:06.466Z,0.80
2018-01-22T03:08:34.842Z,0.70
2018-01-22T03:11:03.208Z,0.70
2018-01-22T03:13:31.787Z,0.80
2018-01-22T03:16:00.140Z,0.80
2018-01-22T03:18:28.499Z,0.80
2018-01-22T03:20:56.895Z,0.80
2018-01-22T03:23:25.227Z,0.80
2018-01-22T03:25:54.023Z,0.80
2018-01-22T03:28:23.179Z,0.80
2018-01-22T03:30:51.521Z,0.80
2018-01-22T03:33:19.932Z,0.80
2018-01-22T03:35:49.351Z,0.80
2018-01-22T03:38:17.977Z,0.80
2018-01-22T03:40:46.323Z,0.80
2018-01-22T03:43:14.868Z,0.70
2018-01-22T03:45:43.214Z,0.80
2018-01-22T03:48:12.343Z,0.80
2018-01-22T03:50:41.106Z,0.80
2018-01-22T03:53:09.441Z,0.80
2018-01-22T03:55:37.769Z,0.80
2018-01-22T03:58:07.115Z,0.80
2018-01-22T04:00:36.253Z,0.90
2018-01-22T04:03:04.951Z,0.80
2018-01-22T04:05:33.564Z,0.90
2018-01-22T04:08:01.912Z,0.80
2018-01-22T04:10:30.258Z,0.80
2018-01-22T04:12:59.727Z,0.90
2018-01-22T04:15:28.876Z,0.80
2018-01-22T04:17:57.977Z,0.80
2018-01-22T04:20:27.317Z,0.80
2018-01-22T04:22:55.690Z,0.80
2018-01-22T04:25:24.051Z,0.70
2018-01-22T04:27:53.028Z,0.70
2018-01-22T04:30:21.380Z,0.70
2018-01-22T04:32:50.515Z,0.60
2018-01-22T04:35:18.968Z,0.60
2018-01-22T04:37:48.090Z,0.60
2018-01-22T04:40:16.438Z,0.60
2018-01-22T04:42:45.658Z,0.60
2018-01-22T04:45:13.997Z,0.60
2018-01-22T04:47:42.364Z,0.60
2018-01-22T04:50:10.896Z,0.60
2018-01-22T04:52:40.392Z,0.60
2018-01-22T04:55:09.503Z,0.60
2018-01-22T04:57:37.961Z,0.60
2018-01-22T05:00:07.066Z,0.60
2018-01-22T05:02:36.380Z,0.60
2018-01-22T05:05:04.943Z,0.60
2018-01-22T05:07:33.284Z,0.60
2018-01-22T05:10:03.216Z,0.60
2018-01-22T05:12:32.076Z,0.60
2018-01-22T05:15:00.420Z,0.60
2018-01-22T05:17:28.995Z,0.60
2018-01-22T05:19:57.383Z,0.60
2018-01-22T05:22:25.742Z,0.60
2018-01-22T05:24:54.861Z,0.60
2018-01-22T05:27:23.243Z,0.60
2018-01-22T05:29:53.279Z,0.60
2018-01-22T05:32:21.681Z,0.60
2018-01-22T05:34:51.177Z,0.60
2018-01-22T05:37:19.564Z,0.60
2018-01-22T05:39:47.906Z,0.60
2018-01-22T05:42:16.807Z,0.70
2018-01-22T05:44:45.159Z,0.70
2018-01-22T05:47:13.527Z,0.70
2018-01-22T05:49:42.801Z,0.70
2018-01-22T05:52:11.150Z,0.70
2018-01-22T05:54:39.552Z,0.70
2018-01-22T05:57:08.110Z,0.80
2018-01-22T05:59:37.310Z,0.80
2018-01-22T06:02:05.658Z,0.80
2018-01-22T06:04:34.331Z,0.80
2018-01-22T06:07:02.729Z,0.80
2018-01-22T06:09:31.091Z,0.80
2018-01-22T06:11:59.609Z,0.80
2018-01-22T06:14:27.965Z,0.90
2018-01-22T06:16:56.305Z,0.90
2018-01-22T06:19:25.644Z,0.80
2018-01-22T06:21:54.020Z,0.90
2018-01-22T06:24:22.529Z,0.90
2018-01-22T06:26:50.931Z,0.80
2018-01-22T06:29:19.297Z,0.90
2018-01-22T06:31:47.893Z,0.90
2018-01-22T06:34:16.284Z,0.90
2018-01-22T06:36:44.838Z,0.90
2018-01-22T06:39:13.235Z,0.90
2018-01-22T06:41:42.022Z,0.90
2018-01-22T06:44:10.417Z,0.90
2018-01-22T06:46:39.524Z,0.90
2018-01-22T06:49:09.355Z,0.90
2018-01-22T06:51:37.827Z,0.90
2018-01-22T06:54:06.179Z,0.90
2018-01-22T06:56:35.760Z,0.90
2018-01-22T06:59:05.167Z,0.90
2018-01-22T07:01:33.535Z,0.90
2018-01-22T07:04:02.395Z,0.90
2018-01-22T07:06:30.765Z,0.90
2018-01-22T07:08:59.134Z,0.90
2018-01-22T07:11:28.413Z,0.90
2018-01-22T07:13:57.548Z,1.00
2018-01-22T07:16:25.908Z,1.00
2018-01-22T07:18:54.378Z,0.90
2018-01-22T07:21:23.736Z,1.00
2018-01-22T07:23:52.150Z,0.90
2018-01-22T07:26:20.817Z,1.00
2018-01-22T07:28:49.174Z,0.90
2018-01-22T07:31:17.670Z,1.00
2018-01-22T07:33:46.279Z,1.00
2018-01-22T07:36:15.402Z,1.00
2018-01-22T07:38:43.887Z,1.00
2018-01-22T07:41:12.551Z,1.00
2018-01-22T07:43:41.688Z,1.00
2018-01-22T07:46:10.257Z,1.00
2018-01-22T07:48:38.967Z,1.00
2018-01-22T07:51:07.336Z,1.10
2018-01-22T07:53:35.682Z,1.10
2018-01-22T07:56:04.216Z,1.10
2018-01-22T07:58:32.589Z,1.10
2018-01-22T08:01:00.985Z,1.10
2018-01-22T08:03:29.477Z,1.10
2018-01-22T08:05:57.842Z,1.10
2018-01-22T08:08:26.193Z,1.10
2018-01-22T08:10:54.964Z,1.10
2018-01-22T08:13:23.315Z,1.10
2018-01-22T08:15:52.456Z,1.20
2018-01-22T08:18:20.869Z,1.10
2018-01-22T08:20:49.256Z,1.10
2018-01-22T08:23:17.889Z,1.20
2018-01-22T08:25:46.730Z,1.20
2018-01-22T08:28:15.109Z,1.20
2018-01-22T08:30:43.464Z,1.20
2018-01-22T08:33:11.855Z,1.20
2018-01-22T08:35:40.691Z,1.20
2018-01-22T08:38:09.038Z,1.20
2018-01-22T08:40:38.488Z,1.20
2018-01-22T08:43:06.840Z,1.20
2018-01-22T08:45:35.187Z,1.20
2018-01-22T08:48:03.848Z,1.30
2018-01-22T08:50:32.216Z,1.30
2018-01-22T08:53:00.646Z,1.30
2018-01-22T08:55:29.992Z,1.30
2018-01-22T08:57:58.335Z,1.20
2018-01-22T09:00:27.781Z,1.30
2018-01-22T09:02:56.362Z,1.30
2018-01-22T09:05:24.704Z,1.30
2018-01-22T09:07:53.844Z,1.30
2018-01-22T09:10:23.378Z,1.30
2018-01-22T09:12:51.732Z,1.30
2018-01-22T09:15:20.103Z,1.30
2018-01-22T09:17:48.588Z,1.30
2018-01-22T09:20:16.967Z,1.30
2018-01-22T09:22:45.359Z,1.40
2018-01-22T09:25:14.695Z,1.40
2018-01-22T09:27:43.832Z,1.40
2018-01-22T09:30:12.184Z,1.40
2018-01-22T09:32:40.801Z,1.40
2018-01-22T09:35:09.174Z,1.50
2018-01-22T09:37:37.711Z,1.40
2018-01-22T09:40:07.077Z,1.50
2018-01-22T09:42:35.451Z,1.50
2018-01-22T09:45:03.828Z,1.50
2018-01-22T09:47:32.312Z,1.50
2018-01-22T09:50:01.064Z,1.50
2018-01-22T09:52:29.443Z,1.50
2018-01-22T09:54:57.968Z,1.50
2018-01-22T09:57:26.327Z,1.50
2018-01-22T09:59:54.688Z,1.50
2018-01-22T10:02:23.194Z,1.50
2018-01-22T10:04:51.550Z,1.50
2018-01-22T10:07:19.914Z,1.50
2018-01-22T10:09:48.432Z,1.50
2018-01-22T10:12:16.792Z,1.50
2018-01-22T10:14:45.246Z,1.60
2018-01-22T10:17:13.755Z,1.60
2018-01-22T10:19:42.123Z,1.60
2018-01-22T10:22:10.480Z,1.60
2018-01-22T10:24:39.690Z,1.70
2018-01-22T10:27:08.065Z,1.60
2018-01-22T10:29:36.436Z,1.70
2018-01-22T10:32:04.831Z,1.60
2018-01-22T10:34:33.186Z,1.70
2018-01-22T10:37:02.372Z,1.70
2018-01-22T10:39:31.441Z,1.70
2018-01-22T10:41:59.827Z,1.80
2018-01-22T10:44:28.191Z,1.80
2018-01-22T10:46:56.631Z,1.80
2018-01-22T10:49:24.983Z,1.80
2018-01-22T10:51:53.360Z,1.80
2018-01-22T10:54:22.524Z,1.90
2018-01-22T10:56:51.679Z,2.00
2018-01-22T10:59:20.034Z,1.90
2018-01-22T11:01:49.207Z,1.80
2018-01-22T11:04:17.746Z,1.90
2018-01-22T11:06:46.114Z,1.90
2018-01-22T11:09:14.520Z,1.90
2018-01-22T11:11:42.867Z,2.00
2018-01-22T11:14:11.251Z,2.00
2018-01-22T11:16:39.793Z,2.00
2018-01-22T11:19:08.972Z,1.90
2018-01-22T11:21:37.332Z,1.90
2018-01-22T11:24:06.149Z,2.00
2018-01-22T11:26:34.534Z,1.90
2018-01-22T11:29:03.132Z,2.00
2018-01-22T11:31:32.494Z,2.00
2018-01-22T11:34:00.850Z,2.00
2018-01-22T11:36:29.215Z,2.10
2018-01-22T11:38:57.844Z,2.00
2018-01-22T11:41:26.722Z,2.10
2018-01-22T11:43:56.213Z,2.30
2018-01-22T11:46:24.604Z,2.20
2018-01-22T11:48:52.951Z,2.20
2018-01-22T11:51:21.377Z,2.30
2018-01-22T11:53:50.879Z,2.40
2018-01-22T11:56:19.237Z,2.40
2018-01-22T11:58:47.584Z,2.50
2018-01-22T12:01:16.939Z,2.30
2018-01-22T12:03:45.298Z,2.40
2018-01-22T12:06:13.726Z,2.40
2018-01-22T12:08:42.920Z,2.40
2018-01-22T12:11:11.302Z,2.40
2018-01-22T12:13:39.681Z,2.60
2018-01-22T12:16:08.233Z,2.50
2018-01-22T12:18:36.691Z,2.50
2018-01-22T12:21:05.042Z,2.60
2018-01-22T12:23:34.336Z,2.60
2018-01-22T12:26:03.595Z,2.70
2018-01-22T12:28:31.950Z,2.70
2018-01-22T12:31:00.660Z,2.70
2018-01-22T12:33:29.008Z,2.70
2018-01-22T12:35:57.419Z,2.80
2018-01-22T12:38:25.834Z,2.80
2018-01-22T12:40:55.097Z,2.90
2018-01-22T12:43:24.087Z,2.90
2018-01-22T12:45:52.493Z,2.90
2018-01-22T12:48:20.869Z,3.00
2018-01-22T12:50:49.331Z,3.00
2018-01-22T12:53:17.808Z,3.00
2018-01-22T12:55:46.287Z,3.00
2018-01-22T12:58:14.639Z,3.00
2018-01-22T13:00:43.334Z,3.00
2018-01-22T13:03:11.696Z,3.10
2018-01-22T13:05:40.053Z,3.10
2018-01-22T13:08:08.599Z,3.10
2018-01-22T13:10:37.380Z,3.10
2018-01-22T13:13:05.761Z,3.10
2018-01-22T13:15:35.389Z,3.20
2018-01-22T13:18:03.731Z,3.10
2018-01-22T13:20:32.221Z,3.20
2018-01-22T13:23:00.852Z,3.30
2018-01-22T13:25:29.990Z,3.30
2018-01-22T13:27:58.357Z,3.20
2018-01-22T13:30:27.407Z,3.30
2018-01-22T13:32:55.869Z,3.30
2018-01-22T13:35:24.257Z,3.30
2018-01-22T13:37:52.991Z,3.20
2018-01-22T13:40:27.035Z,3.30
2018-01-22T13:42:55.547Z,3.30
2018-01-22T13:45:24.304Z,3.20
2018-01-22T13:47:52.730Z,3.20
2018-01-22T13:50:22.141Z,3.20
2018-01-22T13:52:50.583Z,3.20
2018-01-22T13:55:18.962Z,3.30
2018-01-22T13:57:47.697Z,3.30
2018-01-22T14:00:16.122Z,3.20
2018-01-22T14:02:44.542Z,3.30
2018-01-22T14:05:13.149Z,3.10
2018-01-22T14:07:41.597Z,3.20
2018-01-22T14:10:10.043Z,3.30
2018-01-22T14:12:38.826Z,3.30
2018-01-22T14:15:07.203Z,3.30
2018-01-22T14:17:35.560Z,3.30
2018-01-22T14:20:03.963Z,3.30
2018-01-22T14:22:32.704Z,3.30
2018-01-22T14:25:01.057Z,3.40
2018-01-22T14:27:30.416Z,3.30
2018-01-22T14:29:58.788Z,3.30
2018-01-22T14:32:27.151Z,3.40
2018-01-22T14:34:55.762Z,3.50
2018-01-22T14:37:24.120Z,3.50
2018-01-22T14:39:52.474Z,3.40
2018-01-22T14:42:21.213Z,3.40
2018-01-22T14:44:49.688Z,3.40
2018-01-22T14:47:18.509Z,3.30
2018-01-22T14:49:47.105Z,3.40
2018-01-22T14:52:16.229Z,3.30
2018-01-22T14:54:44.589Z,3.20
2018-01-22T14:57:13.765Z,3.30
2018-01-22T14:59:42.888Z,3.20
2018-01-22T15:02:11.238Z,3.20
2018-01-22T15:04:40.604Z,3.40
2018-01-22T15:07:09.767Z,3.30
2018-01-22T15:09:38.187Z,3.30
2018-01-22T15:12:06.775Z,3.40
2018-01-22T15:14:35.951Z,3.40
2018-01-22T15:17:04.334Z,3.40
2018-01-22T15:19:32.812Z,3.30
2018-01-22T15:22:01.261Z,3.20
2018-01-22T15:24:29.631Z,3.20
2018-01-22T15:26:58.840Z,3.30
2018-01-22T15:29:27.217Z,3.30
2018-01-22T15:31:55.585Z,3.40
2018-01-22T15:34:24.783Z,3.30
2018-01-22T15:36:54.264Z,3.30
2018-01-22T15:39:22.661Z,3.30
2018-01-22T15:41:51.916Z,3.30
2018-01-22T15:44:20.272Z,3.30
2018-01-22T15:46:48.660Z,3.40
2018-01-22T15:49:17.625Z,3.30
2018-01-22T15:51:45.995Z,3.30
2018-01-22T15:54:15.121Z,3.30
2018-01-22T15:56:43.540Z,3.30
2018-01-22T15:59:11.902Z,3.30
2018-01-22T16:01:40.482Z,3.30
2018-01-22T16:04:08.968Z,3.20
2018-01-22T16:06:37.370Z,3.20
2018-01-22T16:09:05.812Z,3.10
2018-01-22T16:11:34.299Z,3.20
2018-01-22T16:14:02.787Z,3.20
2018-01-22T16:16:31.168Z,3.30
2018-01-22T16:19:00.465Z,3.10
2018-01-22T16:21:28.834Z,3.10
2018-01-22T16:23:57.267Z,3.10
2018-01-22T16:26:26.793Z,3.10
2018-01-22T16:28:55.310Z,3.20
2018-01-22T16:31:23.675Z,3.20
2018-01-22T16:33:52.376Z,3.20
2018-01-22T16:36:20.741Z,3.20
2018-01-22T16:38:49.622Z,3.20
2018-01-22T16:41:18.165Z,3.20
2018-01-22T16:43:47.282Z,3.40
2018-01-22T16:46:15.639Z,3.30
2018-01-22T16:48:44.903Z,3.40
2018-01-22T16:51:13.585Z,3.40
2018-01-22T16:53:41.966Z,3.40
2018-01-22T16:56:11.238Z,3.40
2018-01-22T16:58:39.598Z,3.40
2018-01-22T17:01:07.987Z,3.40
2018-01-22T17:03:36.413Z,3.40
2018-01-22T17:06:04.873Z,3.50
2018-01-22T17:08:33.232Z,3.70
2018-01-22T17:11:01.717Z,3.60
2018-01-22T17:13:30.847Z,3.60
2018-01-22T17:15:59.266Z,3.60
2018-01-22T17:18:27.763Z,3.50
2018-01-22T17:20:56.127Z,3.60
2018-01-22T17:23:25.247Z,3.60
2018-01-22T17:25:53.639Z,3.60
2018-01-22T17:28:22.141Z,3.50
2018-01-22T17:30:50.511Z,3.50
2018-01-22T17:33:18.921Z,3.40
2018-01-22T17:35:48.059Z,3.40
2018-01-22T17:38:16.437Z,3.40
2018-01-22T17:40:44.846Z,3.30
2018-01-22T17:43:13.224Z,3.40
2018-01-22T17:45:41.580Z,3.40
2018-01-22T17:48:10.297Z,3.40
2018-01-22T17:50:38.664Z,3.40
2018-01-22T17:53:07.740Z,3.40
2018-01-22T17:55:36.331Z,3.50
2018-01-22T17:58:04.683Z,3.50
2018-01-22T18:00:33.079Z,3.50
2018-01-22T18:03:01.609Z,3.60
2018-01-22T18:05:30.779Z,3.70
2018-01-22T18:07:59.138Z,3.70
2018-01-22T18:10:27.853Z,3.60
2018-01-22T18:12:56.220Z,3.60
2018-01-22T18:15:24.615Z,3.60
2018-01-22T18:17:54.825Z,3.60
2018-01-22T18:20:23.198Z,3.60
2018-01-22T18:22:51.580Z,3.60
2018-01-22T18:25:20.132Z,3.70
2018-01-22T18:27:48.527Z,3.70
2018-01-22T18:30:16.932Z,3.80
2018-01-22T18:32:45.723Z,3.90
2018-01-22T18:35:14.091Z,3.90
2018-01-22T18:37:42.483Z,3.80
2018-01-22T18:40:11.128Z,3.70
2018-01-22T18:42:39.743Z,3.70
2018-01-22T18:45:08.104Z,3.70
2018-01-22T18:47:36.621Z,3.70
2018-01-22T18:50:05.010Z,3.70
2018-01-22T18:52:34.145Z,3.80
2018-01-22T18:55:03.048Z,3.80
2018-01-22T18:57:31.462Z,3.80
2018-01-22T18:59:59.832Z,4.00
2018-01-22T19:02:29.763Z,4.00
2018-01-22T19:04:58.939Z,4.00
2018-01-22T19:07:27.612Z,4.00
2018-01-22T19:09:56.775Z,3.90
2018-01-22T19:12:25.143Z,3.90
2018-01-22T19:14:54.327Z,3.90
2018-01-22T19:17:23.645Z,3.90
2018-01-22T19:19:52.023Z,3.90
2018-01-22T19:22:22.036Z,3.90
2018-01-22T19:24:51.399Z,4.00
2018-01-22T19:27:19.746Z,4.00
2018-01-22T19:29:48.099Z,4.10
2018-01-22T19:32:16.863Z,4.20
2018-01-22T19:34:45.245Z,4.30
2018-01-22T19:37:13.620Z,4.40
2018-01-22T19:39:42.028Z,4.40
2018-01-22T19:42:10.373Z,4.40
2018-01-22T19:44:38.788Z,4.40
2018-01-22T19:47:08.341Z,4.40
2018-01-22T19:49:36.702Z,4.40
2018-01-22T19:52:05.064Z,4.30
2018-01-22T19:54:33.684Z,4.10
2018-01-22T19:57:02.347Z,4.10
2018-01-22T19:59:30.694Z,4.00
2018-01-22T20:01:59.146Z,4.00
2018-01-22T20:04:27.599Z,4.00
2018-01-22T20:06:55.958Z,4.00
2018-01-22T20:09:24.460Z,4.00
2018-01-22T20:11:52.841Z,4.00
2018-01-22T20:14:21.206Z,4.00
2018-01-22T20:16:50.409Z,4.00
2018-01-22T20:19:18.777Z,4.00
2018-01-22T20:21:47.336Z,4.00
2018-01-22T20:24:16.021Z,4.00
2018-01-22T20:26:44.371Z,3.90
2018-01-22T20:29:13.571Z,3.90
2018-01-22T20:31:42.735Z,3.90
2018-01-22T20:34:11.126Z,3.90
2018-01-22T20:36:39.488Z,3.90
2018-01-22T20:39:08.278Z,3.90
2018-01-22T20:41:36.694Z,3.80
2018-01-22T20:44:05.836Z,3.80
2018-01-22T20:46:34.763Z,3.70
2018-01-22T20:49:03.120Z,3.90
2018-01-22T20:51:31.499Z,3.80
2018-01-22T20:54:00.067Z,4.00
2018-01-22T20:56:29.570Z,4.20
2018-01-22T20:58:58.228Z,4.20
2018-01-22T21:01:26.711Z,4.30
2018-01-22T21:03:55.080Z,4.30
2018-01-22T21:06:23.479Z,4.30
2018-01-22T21:08:52.047Z,4.30
2018-01-22T21:11:20.688Z,4.30
2018-01-22T21:13:49.061Z,4.40
2018-01-22T21:16:17.645Z,4.40
2018-01-22T21:18:46.013Z,4.40
2018-01-22T21:21:14.363Z,4.40
2018-01-22T21:23:43.081Z,4.30
2018-01-22T21:26:11.432Z,4.40
2018-01-22T21:28:39.794Z,4.40
2018-01-22T21:31:08.285Z,4.40
2018-01-22T21:33:36.660Z,4.40
2018-01-22T21:36:05.256Z,4.40
2018-01-22T21:38:33.927Z,4.40
2018-01-22T21:41:02.293Z,4.40
2018-01-22T21:43:30.688Z,4.40
2018-01-22T21:46:00.036Z,4.40
2018-01-22T21:48:28.391Z,4.40
2018-01-22T21:50:56.740Z,4.50
2018-01-22T21:53:25.276Z,4.50
2018-01-22T21:55:53.630Z,4.50
2018-01-22T21:58:22.015Z,4.60
2018-01-22T22:00:50.720Z,4.60
2018-01-22T22:03:19.091Z,4.60
2018-01-22T22:05:47.501Z,4.60
2018-01-22T22:08:16.947Z,4.70
2018-01-22T22:10:45.297Z,4.60
2018-01-22T22:13:13.733Z,4.70
2018-01-22T22:15:42.349Z,4.70
2018-01-22T22:18:11.468Z,4.70
2018-01-22T22:20:39.831Z,4.60
2018-01-22T22:23:09.173Z,4.70
2018-01-22T22:25:37.571Z,4.60
2018-01-22T22:28:05.936Z,4.60
2018-01-22T22:30:34.517Z,4.70
2018-01-22T22:33:02.872Z,4.70
2018-01-22T22:35:31.223Z,4.70
2018-01-22T22:38:00.582Z,4.70
2018-01-22T22:40:28.938Z,4.70
2018-01-22T22:42:57.342Z,4.70
2018-01-22T22:45:25.827Z,4.70
2018-01-22T22:47:54.178Z,4.80
2018-01-22T22:50:22.807Z,4.80
2018-01-22T22:52:51.381Z,4.80
2018-01-22T22:55:19.732Z,4.80
2018-01-22T22:57:48.101Z,4.80
2018-01-22T23:00:16.664Z,4.90
2018-01-22T23:02:45.290Z,4.90
2018-01-22T23:05:13.677Z,4.90
2018-01-22T23:07:42.445Z,4.90
2018-01-22T23:10:10.794Z,4.90
2018-01-22T23:12:39.151Z,4.80
2018-01-22T23:15:08.494Z,4.90
2018-01-22T23:17:36.844Z,4.90
2018-01-22T23:20:05.955Z,4.90
2018-01-22T23:22:34.430Z,4.80
2018-01-22T23:25:02.783Z,4.90
2018-01-22T23:27:31.904Z,4.80
2018-01-22T23:30:00.834Z,4.80
2018-01-22T23:32:29.951Z,4.90
2018-01-22T23:34:58.311Z,4.80
2018-01-22T23:37:26.801Z,4.80
2018-01-22T23:39:55.536Z,4.70
2018-01-22T23:42:23.915Z,4.70
2018-01-22T23:44:52.317Z,4.70
2018-01-22T23:47:20.675Z,4.70
2018-01-22T23:49:49.052Z,4.70
2018-01-22T23:52:17.459Z,4.70
2018-01-22T23:54:45.840Z,4.80
2018-01-22T23:57:14.199Z,4.90
2018-01-22T23:59:42.721Z,4.80
